NCAR-RAP Real-Time Weather Data

Output produced by METARs form (20 January 2020  09:14 UTC)
found at http://weather.rap.ucar.edu/surface/
 
Conditions at: KTYQ observed 20 January 2020  08:55 UTC
Temperature: -12.3°C (10°F)
Dewpoint: -12.3°C (10°F) [RH = 100%]
Pressure (altimeter): 30.48 inches Hg (1032.3 mb)
Winds: from the W (280 degrees) at 7 MPH (6 knots; 3.1 m/s)
Visibility: 10 or more miles (16+ km)
Ceiling: 1100 feet AGL
Clouds: broken clouds at 1100 feet AGL
Present Weather: -SN  (light snow)
KTYQ 200855Z AUTO 28006KT 10SM -SN BKN011 M12/M12 A3048 RMK AO2 T11231123